South Ashburnham, Massachusetts
Current Conditions -  °F | °C
As of 4:52 AM on Saturday 20 Dec 2014 (Local Time) from KAFN Reporting Station
Clear Clear  
Wind Chill: 17°   Ceiling: Unl
Heat Index: 17°   Visibility: 10mi
Dew Point: 15°   Wind: 0mph
Humidity: 92%   Direction: NA
Pressure: 30.17"   Gusts: NA
Location:  42.659°N, 71.9245°W
Report Text: KAFN 200952Z AUTO 00000KT 10SM CLR M08/M09 A3017 RMK AO2 SLP236 I1000 T10831094
Loading
Personal Weather Stations






























Interactive Weather Map New forecast layout! Learn more

10-Day Weather Forecast

Advertisements
Track Severe Weather on mobile